createdAt,value
2018-09-06T00:00:44.127Z,99.90
2018-09-06T00:03:15.499Z,99.90
2018-09-06T00:05:47.055Z,99.90
2018-09-06T00:08:18.286Z,99.90
2018-09-06T00:10:49.783Z,99.90
2018-09-06T00:13:22.454Z,99.90
2018-09-06T00:15:54.802Z,99.90
2018-09-06T00:18:26.069Z,99.90
2018-09-06T00:20:57.732Z,99.90
2018-09-06T00:23:29.139Z,99.90
2018-09-06T00:26:01.414Z,99.90
2018-09-06T00:28:32.749Z,99.90
2018-09-06T00:31:04.165Z,99.90
2018-09-06T00:33:35.364Z,99.90
2018-09-06T00:36:06.886Z,99.90
2018-09-06T00:38:38.129Z,99.90
2018-09-06T00:41:09.891Z,99.90
2018-09-06T00:43:41.275Z,99.90
2018-09-06T00:46:12.854Z,99.90
2018-09-06T00:48:44.213Z,99.90
2018-09-06T00:51:15.810Z,99.90
2018-09-06T00:53:47.616Z,99.90
2018-09-06T00:56:18.979Z,99.90
2018-09-06T00:58:50.373Z,99.90
2018-09-06T01:01:21.826Z,99.90
2018-09-06T01:03:53.341Z,99.90
2018-09-06T01:06:25.293Z,99.90
2018-09-06T01:08:56.516Z,99.90
2018-09-06T01:11:27.821Z,99.90
2018-09-06T01:13:59.021Z,99.90
2018-09-06T01:16:30.322Z,99.90
2018-09-06T01:19:01.633Z,99.90
2018-09-06T01:21:33.015Z,99.90
2018-09-06T01:24:04.277Z,99.90
2018-09-06T01:26:35.892Z,99.90
2018-09-06T01:29:07.310Z,99.90
2018-09-06T01:31:38.570Z,99.90
2018-09-06T01:34:10.424Z,99.90
2018-09-06T01:36:48.166Z,99.90
2018-09-06T01:39:19.138Z,99.90
2018-09-06T01:41:50.341Z,99.90
2018-09-06T01:44:21.847Z,99.90
2018-09-06T01:46:53.132Z,99.90
2018-09-06T01:49:24.419Z,99.90
2018-09-06T01:51:55.881Z,99.90
2018-09-06T01:54:27.497Z,99.90
2018-09-06T01:56:58.659Z,99.90
2018-09-06T01:59:34.037Z,99.90
2018-09-06T02:02:05.055Z,99.90
2018-09-06T02:04:37.012Z,99.90
2018-09-06T02:07:08.921Z,99.90
2018-09-06T02:09:40.105Z,99.90
2018-09-06T02:12:11.122Z,99.90
2018-09-06T02:14:42.369Z,99.90
2018-09-06T02:17:13.582Z,99.90
2018-09-06T02:19:44.786Z,99.90
2018-09-06T02:22:15.839Z,99.90
2018-09-06T02:24:47.112Z,99.90
2018-09-06T02:27:18.489Z,99.90
2018-09-06T02:29:49.705Z,99.90
2018-09-06T02:32:20.957Z,99.90
2018-09-06T02:34:52.464Z,99.90
2018-09-06T02:37:24.622Z,99.90
2018-09-06T02:39:55.882Z,99.90
2018-09-06T02:42:27.141Z,99.90
2018-09-06T02:44:58.701Z,99.90
2018-09-06T02:47:29.950Z,99.90
2018-09-06T02:50:05.315Z,99.90
2018-09-06T02:52:36.321Z,99.90
2018-09-06T02:55:07.414Z,99.90
2018-09-06T02:57:38.414Z,99.90
2018-09-06T03:00:09.423Z,99.90
2018-09-06T03:02:40.514Z,99.90
2018-09-06T03:05:11.742Z,99.90
2018-09-06T03:07:42.882Z,99.90
2018-09-06T03:10:14.102Z,99.90
2018-09-06T03:12:45.753Z,99.90
2018-09-06T03:15:17.187Z,99.90
2018-09-06T03:17:48.361Z,99.90
2018-09-06T03:20:19.509Z,99.90
2018-09-06T03:22:50.607Z,99.90
2018-09-06T03:25:22.009Z,99.90
2018-09-06T03:27:53.361Z,99.90
2018-09-06T03:30:24.519Z,99.90
2018-09-06T03:32:56.044Z,99.90
2018-09-06T03:35:27.090Z,99.90
2018-09-06T03:37:58.443Z,99.90
2018-09-06T03:40:29.691Z,99.90
2018-09-06T03:43:00.983Z,99.90
2018-09-06T03:45:32.752Z,99.90
2018-09-06T03:48:03.955Z,99.90
2018-09-06T03:50:34.913Z,99.90
2018-09-06T03:53:06.211Z,99.90
2018-09-06T03:55:37.437Z,99.90
2018-09-06T03:58:08.800Z,99.90
2018-09-06T04:00:39.873Z,99.90
2018-09-06T04:03:11.168Z,99.90
2018-09-06T04:05:42.151Z,99.90
2018-09-06T04:08:13.991Z,99.90
2018-09-06T04:10:45.209Z,99.90
2018-09-06T04:13:16.597Z,99.90
2018-09-06T04:15:47.805Z,99.90
2018-09-06T04:18:19.088Z,99.90
2018-09-06T04:20:50.226Z,99.90
2018-09-06T04:23:21.862Z,99.90
2018-09-06T04:25:52.942Z,99.90
2018-09-06T04:28:24.249Z,99.90
2018-09-06T04:30:55.466Z,99.90
2018-09-06T04:33:27.277Z,99.90
2018-09-06T04:35:58.480Z,99.90
2018-09-06T04:38:30.056Z,99.90
2018-09-06T04:41:01.102Z,99.90
2018-09-06T04:43:32.602Z,99.90
2018-09-06T04:46:04.759Z,99.90
2018-09-06T04:48:36.364Z,99.90
2018-09-06T04:51:07.602Z,99.90
2018-09-06T04:53:38.669Z,99.90
2018-09-06T04:56:09.785Z,99.90
2018-09-06T04:58:40.951Z,99.90
2018-09-06T05:01:12.095Z,99.90
2018-09-06T05:03:43.377Z,99.90
2018-09-06T05:06:14.701Z,99.90
2018-09-06T05:08:45.842Z,99.90
2018-09-06T05:11:17.533Z,99.90
2018-09-06T05:13:48.690Z,99.90
2018-09-06T05:16:19.813Z,99.90
2018-09-06T05:18:50.909Z,99.90
2018-09-06T05:21:21.970Z,99.90
2018-09-06T05:23:53.070Z,99.90
2018-09-06T05:26:24.470Z,99.90
2018-09-06T05:28:55.925Z,99.90
2018-09-06T05:31:27.122Z,99.90
2018-09-06T05:33:58.157Z,99.90
2018-09-06T05:36:29.227Z,99.90
2018-09-06T05:39:00.332Z,99.90
2018-09-06T05:41:31.616Z,99.90
2018-09-06T05:44:02.744Z,99.90
2018-09-06T05:46:34.582Z,99.90
2018-09-06T05:49:05.737Z,99.90
2018-09-06T05:51:37.609Z,99.90
2018-09-06T05:54:09.210Z,99.90
2018-09-06T05:56:40.315Z,99.90
2018-09-06T05:59:11.249Z,99.90
2018-09-06T06:01:42.726Z,99.90
2018-09-06T06:04:13.745Z,99.90
2018-09-06T06:06:45.114Z,99.90
2018-09-06T06:09:16.224Z,99.90
2018-09-06T06:11:47.519Z,99.90
2018-09-06T06:14:18.604Z,99.90
2018-09-06T06:16:49.728Z,99.90
2018-09-06T06:19:20.962Z,99.90
2018-09-06T06:21:51.983Z,99.90
2018-09-06T06:24:23.025Z,99.90
2018-09-06T06:26:54.161Z,99.90
2018-09-06T06:29:25.838Z,99.90
2018-09-06T06:31:56.891Z,99.90
2018-09-06T06:34:28.031Z,99.90
2018-09-06T06:36:59.856Z,99.90
2018-09-06T06:39:32.302Z,99.90
2018-09-06T06:42:03.742Z,99.90
2018-09-06T06:44:35.017Z,99.90
2018-09-06T06:47:06.037Z,99.90
2018-09-06T06:49:37.487Z,99.90
2018-09-06T06:52:08.665Z,99.90
2018-09-06T06:54:39.902Z,99.90
2018-09-06T06:57:11.133Z,99.90
2018-09-06T06:59:42.399Z,99.90
2018-09-06T07:02:13.456Z,99.90
2018-09-06T07:04:44.815Z,99.90
2018-09-06T07:07:15.964Z,99.90
2018-09-06T07:09:47.369Z,99.90
2018-09-06T07:12:18.323Z,99.90
2018-09-06T07:14:49.749Z,99.90
2018-09-06T07:17:20.861Z,99.90
2018-09-06T07:19:52.257Z,99.90
2018-09-06T07:22:23.251Z,99.90
2018-09-06T07:24:54.390Z,99.90
2018-09-06T07:27:25.600Z,99.90
2018-09-06T07:29:57.173Z,99.90
2018-09-06T07:32:28.608Z,99.90
2018-09-06T07:35:00.371Z,99.90
2018-09-06T07:37:31.489Z,99.90
2018-09-06T07:40:02.821Z,99.90
2018-09-06T07:42:33.911Z,99.90
2018-09-06T07:45:05.637Z,99.90
2018-09-06T07:47:36.738Z,99.90
2018-09-06T07:50:08.122Z,99.90
2018-09-06T07:52:39.233Z,99.90
2018-09-06T07:55:10.502Z,99.90
2018-09-06T07:57:41.862Z,99.90
2018-09-06T08:00:13.126Z,99.90
2018-09-06T08:02:44.088Z,99.90
2018-09-06T08:05:15.541Z,99.90
2018-09-06T08:07:46.657Z,99.90
2018-09-06T08:10:18.047Z,99.90
2018-09-06T08:12:49.180Z,99.90
2018-09-06T08:15:20.448Z,99.90
2018-09-06T08:17:51.397Z,99.90
2018-09-06T08:20:22.653Z,99.90
2018-09-06T08:22:54.027Z,99.90
2018-09-06T08:25:25.630Z,99.90
2018-09-06T08:27:57.048Z,99.90
2018-09-06T08:30:28.638Z,99.90
2018-09-06T08:32:59.538Z,99.90
2018-09-06T08:35:30.977Z,99.90
2018-09-06T08:38:02.207Z,99.90
2018-09-06T08:40:33.410Z,99.90
2018-09-06T08:43:04.499Z,99.90
2018-09-06T08:45:35.753Z,99.90
2018-09-06T08:48:06.841Z,99.90
2018-09-06T08:50:38.048Z,99.90
2018-09-06T08:53:09.165Z,99.90
2018-09-06T08:55:40.307Z,99.90
2018-09-06T08:58:11.437Z,99.90
2018-09-06T09:00:43.673Z,99.90
2018-09-06T09:03:15.012Z,99.90
2018-09-06T09:05:46.259Z,99.90
2018-09-06T09:08:17.558Z,99.90
2018-09-06T09:10:49.105Z,99.90
2018-09-06T09:13:20.255Z,99.90
2018-09-06T09:15:51.607Z,99.90
2018-09-06T09:18:22.940Z,99.90
2018-09-06T09:20:54.314Z,99.90
2018-09-06T09:23:25.441Z,99.90
2018-09-06T09:25:56.654Z,99.90
2018-09-06T09:28:27.622Z,99.90
2018-09-06T09:30:58.979Z,99.90
2018-09-06T09:33:30.238Z,99.90
2018-09-06T09:36:01.828Z,99.90
2018-09-06T09:38:32.998Z,99.90
2018-09-06T09:41:04.254Z,99.90
2018-09-06T09:43:35.461Z,99.90
2018-09-06T09:48:36.609Z,99.90
2018-09-06T09:51:07.912Z,99.90
2018-09-06T09:53:38.969Z,99.90
2018-09-06T09:56:10.178Z,99.90
2018-09-06T09:58:41.491Z,99.90
2018-09-06T10:01:12.719Z,99.90
2018-09-06T10:03:48.405Z,99.90
2018-09-06T10:08:25.579Z,99.90
2018-09-06T10:10:56.993Z,99.90
2018-09-06T10:13:28.024Z,99.90
2018-09-06T10:15:59.740Z,99.90
2018-09-06T10:18:31.305Z,99.90
2018-09-06T10:21:02.786Z,99.90
2018-09-06T10:23:33.984Z,99.90
2018-09-06T10:26:05.204Z,99.90
2018-09-06T10:28:36.504Z,99.90
2018-09-06T10:31:07.751Z,99.90
2018-09-06T10:33:39.373Z,99.90
2018-09-06T10:36:11.283Z,99.90
2018-09-06T10:38:42.705Z,99.90
2018-09-06T10:41:13.888Z,99.90
2018-09-06T10:43:45.251Z,99.90
2018-09-06T10:46:16.226Z,99.90
2018-09-06T10:48:47.663Z,99.90
2018-09-06T10:51:18.751Z,99.90
2018-09-06T10:53:50.334Z,99.90
2018-09-06T10:56:21.763Z,99.90
2018-09-06T10:58:53.041Z,99.90
2018-09-06T11:01:25.250Z,99.90
2018-09-06T11:03:57.979Z,99.90
2018-09-06T11:06:29.585Z,99.90
2018-09-06T11:09:00.867Z,99.90
2018-09-06T11:11:32.143Z,99.90
2018-09-06T11:14:03.502Z,99.90
2018-09-06T11:16:34.777Z,99.90
2018-09-06T11:19:06.006Z,99.90
2018-09-06T11:21:38.004Z,99.90
2018-09-06T11:24:09.302Z,99.90
2018-09-06T11:26:40.606Z,99.90
2018-09-06T11:29:11.874Z,99.90
2018-09-06T11:31:43.440Z,99.90
2018-09-06T11:34:14.676Z,99.90
2018-09-06T11:36:46.006Z,99.90
2018-09-06T11:39:16.968Z,99.90
2018-09-06T11:41:48.187Z,99.90
2018-09-06T11:44:19.449Z,99.90
2018-09-06T11:46:50.749Z,99.90
2018-09-06T11:49:21.846Z,99.90
2018-09-06T11:51:53.402Z,99.90
2018-09-06T11:54:24.889Z,99.90
2018-09-06T11:56:56.024Z,99.90
2018-09-06T11:59:27.503Z,99.90
2018-09-06T12:01:58.792Z,99.90
2018-09-06T12:04:29.866Z,99.90
2018-09-06T12:07:01.061Z,99.90
2018-09-06T12:09:32.572Z,99.90
2018-09-06T12:12:03.970Z,99.90
2018-09-06T12:14:35.582Z,99.90
2018-09-06T12:17:06.720Z,99.90
2018-09-06T12:19:38.092Z,99.90
2018-09-06T12:22:09.244Z,99.90
2018-09-06T12:24:40.815Z,99.90
2018-09-06T12:27:11.921Z,99.90
2018-09-06T12:29:43.179Z,99.90
2018-09-06T12:32:14.409Z,99.90
2018-09-06T12:34:45.922Z,99.90
2018-09-06T12:37:17.664Z,99.90
2018-09-06T12:39:48.876Z,99.90
2018-09-06T12:42:20.209Z,99.90
2018-09-06T12:44:51.694Z,99.90
2018-09-06T12:47:22.982Z,99.90
2018-09-06T12:49:54.407Z,99.90
2018-09-06T12:52:25.529Z,99.90
2018-09-06T12:54:57.503Z,99.90
2018-09-06T12:57:28.721Z,99.90
2018-09-06T12:59:59.996Z,99.90
2018-09-06T13:02:31.395Z,99.90
2018-09-06T13:05:03.386Z,99.90
2018-09-06T13:07:34.780Z,99.90
2018-09-06T13:10:06.458Z,99.90
2018-09-06T13:12:38.060Z,99.90
2018-09-06T13:15:09.408Z,99.90
2018-09-06T13:17:40.808Z,99.90
2018-09-06T13:20:11.995Z,99.90
2018-09-06T13:22:43.208Z,99.90
2018-09-06T13:25:14.458Z,99.90
2018-09-06T13:27:45.585Z,99.90
2018-09-06T13:30:16.980Z,99.90
2018-09-06T13:32:48.304Z,99.90
2018-09-06T13:35:20.766Z,99.90
2018-09-06T13:37:52.311Z,99.90
2018-09-06T13:40:23.538Z,99.90
2018-09-06T13:42:54.632Z,99.90
2018-09-06T13:45:26.063Z,99.90
2018-09-06T13:47:57.080Z,99.90
2018-09-06T13:50:28.590Z,99.90
2018-09-06T13:53:00.506Z,99.90
2018-09-06T13:55:32.111Z,99.90
2018-09-06T13:58:03.318Z,99.90
2018-09-06T14:00:34.515Z,99.90
2018-09-06T14:03:05.738Z,99.90
2018-09-06T14:05:37.274Z,99.90
2018-09-06T14:08:08.410Z,99.90
2018-09-06T14:10:39.507Z,99.90
2018-09-06T14:13:10.945Z,99.90
2018-09-06T14:15:42.356Z,99.90
2018-09-06T14:18:13.517Z,99.90
2018-09-06T14:20:45.169Z,99.90
2018-09-06T14:23:16.068Z,99.90
2018-09-06T14:25:47.299Z,99.90
2018-09-06T14:28:19.404Z,99.90
2018-09-06T14:30:50.908Z,99.90
2018-09-06T14:33:22.355Z,99.90
2018-09-06T14:35:53.836Z,99.90
2018-09-06T14:38:25.119Z,99.90
2018-09-06T14:41:03.918Z,99.90
2018-09-06T14:43:36.104Z,99.90
2018-09-06T14:46:07.466Z,99.90
2018-09-06T14:48:38.707Z,99.90
2018-09-06T14:51:10.205Z,99.90
2018-09-06T14:53:41.319Z,99.90
2018-09-06T14:56:12.565Z,99.90
2018-09-06T14:58:44.059Z,99.90
2018-09-06T15:01:15.368Z,99.90
2018-09-06T15:03:47.011Z,99.90
2018-09-06T15:06:18.246Z,99.90
2018-09-06T15:08:50.489Z,99.90
2018-09-06T15:11:21.795Z,99.90
2018-09-06T15:13:53.108Z,99.90
2018-09-06T15:16:25.489Z,99.90
2018-09-06T15:18:57.075Z,99.90
2018-09-06T15:21:28.309Z,99.90
2018-09-06T15:23:59.511Z,99.90
2018-09-06T15:26:30.878Z,99.90
2018-09-06T15:29:02.562Z,99.90
2018-09-06T15:31:34.170Z,99.90
2018-09-06T15:34:05.351Z,99.90
2018-09-06T15:36:39.255Z,99.90
2018-09-06T15:39:11.611Z,99.90
2018-09-06T15:41:43.219Z,99.90
2018-09-06T15:44:14.544Z,99.90
2018-09-06T15:46:46.113Z,99.90
2018-09-06T15:49:17.313Z,99.90
2018-09-06T15:51:48.724Z,99.90
2018-09-06T15:54:19.880Z,99.90
2018-09-06T15:56:51.353Z,99.90
2018-09-06T15:59:22.922Z,99.90
2018-09-06T16:01:54.096Z,99.90
2018-09-06T16:04:26.523Z,99.90
2018-09-06T16:06:57.700Z,99.90
2018-09-06T16:09:29.095Z,99.90
2018-09-06T16:12:01.046Z,99.90
2018-09-06T16:14:33.157Z,99.90
2018-09-06T16:17:04.618Z,99.90
2018-09-06T16:19:35.937Z,99.90
2018-09-06T16:22:07.285Z,99.90
2018-09-06T16:24:39.503Z,97.90
2018-09-06T16:27:10.695Z,94.50
2018-09-06T16:29:45.393Z,95.40
2018-09-06T16:32:28.119Z,96.20
2018-09-06T16:35:02.310Z,92.60
2018-09-06T16:37:33.972Z,90.90
2018-09-06T16:40:05.562Z,96.40
2018-09-06T16:42:39.450Z,99.90
2018-09-06T16:45:11.105Z,97.90
2018-09-06T16:47:42.245Z,91.60
2018-09-06T16:50:14.468Z,91.50
2018-09-06T16:52:45.920Z,97.70
2018-09-06T16:55:17.326Z,98.70
2018-09-06T16:57:49.675Z,98.30
2018-09-06T17:00:22.481Z,99.60
2018-09-06T17:02:53.545Z,99.90
2018-09-06T17:05:24.819Z,95.90
2018-09-06T17:07:56.802Z,99.90
2018-09-06T17:10:28.025Z,96.90
2018-09-06T17:12:59.230Z,97.20
2018-09-06T17:15:31.273Z,96.40
2018-09-06T17:18:03.588Z,99.90
2018-09-06T17:20:34.885Z,93.20
2018-09-06T17:23:06.683Z,92.70
2018-09-06T17:25:37.964Z,96.90
2018-09-06T17:28:09.344Z,96.90
2018-09-06T17:30:43.877Z,98.30
2018-09-06T17:33:15.238Z,94.90
2018-09-06T17:35:48.174Z,85.00
2018-09-06T17:38:19.712Z,78.00
2018-09-06T17:40:56.907Z,88.40
2018-09-06T17:43:30.564Z,84.10
2018-09-06T17:46:03.411Z,83.60
2018-09-06T17:48:34.980Z,79.80
2018-09-06T17:51:07.663Z,78.10
2018-09-06T17:53:38.996Z,76.50
2018-09-06T17:56:10.998Z,76.40
2018-09-06T17:58:42.793Z,73.40
2018-09-06T18:01:28.144Z,74.70
2018-09-06T18:03:59.505Z,76.40
2018-09-06T18:06:31.773Z,79.40
2018-09-06T18:09:04.278Z,80.00
2018-09-06T18:11:35.972Z,75.90
2018-09-06T18:14:07.114Z,73.60
2018-09-06T18:16:39.158Z,70.30
2018-09-06T18:19:10.487Z,70.30
2018-09-06T18:21:41.974Z,68.70
2018-09-06T18:24:13.198Z,62.40
2018-09-06T18:26:44.490Z,65.80
2018-09-06T18:29:17.059Z,65.70
2018-09-06T18:31:49.047Z,66.00
2018-09-06T18:34:20.269Z,64.40
2018-09-06T18:36:52.135Z,65.30
2018-09-06T18:39:24.325Z,65.80
2018-09-06T18:42:06.829Z,68.30
2018-09-06T18:44:45.288Z,63.90
2018-09-06T18:47:21.513Z,63.20
2018-09-06T18:49:53.956Z,62.30
2018-09-06T18:52:25.195Z,61.20
2018-09-06T18:55:01.318Z,58.50
2018-09-06T18:57:32.069Z,58.20
2018-09-06T19:00:04.338Z,56.90
2018-09-06T19:08:14.540Z,55.60
2018-09-06T19:10:49.200Z,59.20
2018-09-06T19:16:32.498Z,58.80
2018-09-06T19:19:07.626Z,59.00
2018-09-06T19:22:27.247Z,58.20
2018-09-06T19:25:20.852Z,58.10
2018-09-06T19:27:51.860Z,57.00
2018-09-06T19:30:23.391Z,56.50
2018-09-06T19:32:54.712Z,55.20
2018-09-06T19:35:30.873Z,56.30
2018-09-06T19:38:01.636Z,56.10
2018-09-06T19:40:32.617Z,56.80
2018-09-06T19:43:04.752Z,56.40
2018-09-06T19:45:35.651Z,54.40
2018-09-06T19:48:08.560Z,54.80
2018-09-06T19:50:40.493Z,54.80
2018-09-06T19:53:11.329Z,54.00
2018-09-06T19:55:42.233Z,56.00
2018-09-06T19:58:13.490Z,56.30
2018-09-06T20:00:44.594Z,55.00
2018-09-06T20:03:16.027Z,56.10
2018-09-06T20:05:47.077Z,55.10
2018-09-06T20:08:19.613Z,53.80
2018-09-06T20:11:12.719Z,53.50
2018-09-06T20:14:05.856Z,52.60
2018-09-06T20:16:59.753Z,52.20
2018-09-06T20:19:53.089Z,53.10
2018-09-06T20:22:45.667Z,52.50
2018-09-06T20:25:40.034Z,52.20
2018-09-06T20:28:33.008Z,51.70
2018-09-06T20:31:25.442Z,50.70
2018-09-06T20:34:18.731Z,53.90
2018-09-06T20:37:12.863Z,53.90
2018-09-06T20:40:06.213Z,54.20
2018-09-06T20:42:58.862Z,53.20
2018-09-06T20:45:51.877Z,53.40
2018-09-06T20:48:44.524Z,53.50
2018-09-06T20:51:37.557Z,53.50
2018-09-06T20:54:09.246Z,53.20
2018-09-06T20:56:40.380Z,52.40
2018-09-06T20:59:11.291Z,51.80
2018-09-06T21:01:42.279Z,52.90
2018-09-06T21:04:13.169Z,54.10
2018-09-06T21:06:46.044Z,55.20
2018-09-06T21:09:16.934Z,53.10
2018-09-06T21:12:10.448Z,56.20
2018-09-06T21:14:42.909Z,56.40
2018-09-06T21:17:13.664Z,55.60
2018-09-06T21:19:44.776Z,55.80
2018-09-06T21:22:15.668Z,54.10
2018-09-06T21:24:47.121Z,54.20
2018-09-06T21:27:25.874Z,53.90
2018-09-06T21:29:56.945Z,54.50
2018-09-06T21:32:28.761Z,55.30
2018-09-06T21:34:59.798Z,56.80
2018-09-06T21:37:31.853Z,57.50
2018-09-06T21:40:03.118Z,56.40
2018-09-06T21:42:35.182Z,56.40
2018-09-06T21:45:06.647Z,56.40
2018-09-06T21:47:37.798Z,55.00
2018-09-06T21:50:10.009Z,57.00
2018-09-06T21:52:40.976Z,57.40
2018-09-06T21:55:11.894Z,57.10
2018-09-06T21:57:43.107Z,58.20
2018-09-06T22:00:14.247Z,56.00
2018-09-06T22:02:49.674Z,57.40
2018-09-06T22:05:21.850Z,59.40
2018-09-06T22:07:53.167Z,61.00
2018-09-06T22:10:24.922Z,62.40
2018-09-06T22:12:55.916Z,64.00
2018-09-06T22:15:27.073Z,64.60
2018-09-06T22:17:57.950Z,63.40
2018-09-06T22:20:28.948Z,64.20
2018-09-06T22:22:59.868Z,64.70
2018-09-06T22:25:31.024Z,64.10
2018-09-06T22:28:02.276Z,64.20
2018-09-06T22:30:33.459Z,64.40
2018-09-06T22:33:04.326Z,65.80
2018-09-06T22:35:35.905Z,65.90
2018-09-06T22:38:06.893Z,66.40
2018-09-06T22:40:38.773Z,67.30
2018-09-06T22:43:09.642Z,69.10
2018-09-06T22:45:40.925Z,69.40
2018-09-06T22:48:11.983Z,70.10
2018-09-06T22:50:43.058Z,71.80
2018-09-06T22:53:14.033Z,72.20
2018-09-06T22:55:45.057Z,74.90
2018-09-06T22:58:15.891Z,78.30
2018-09-06T23:00:50.826Z,84.30
2018-09-06T23:03:26.511Z,91.00
2018-09-06T23:05:58.715Z,93.80
2018-09-06T23:08:29.712Z,93.50
2018-09-06T23:11:00.469Z,93.80
2018-09-06T23:13:31.364Z,93.50
2018-09-06T23:16:02.538Z,94.60
2018-09-06T23:18:33.380Z,95.70
2018-09-06T23:21:04.388Z,99.90
2018-09-06T23:23:35.105Z,99.90
2018-09-06T23:26:08.045Z,99.90
2018-09-06T23:28:39.162Z,99.90
2018-09-06T23:31:10.301Z,99.90
2018-09-06T23:33:41.300Z,99.90
2018-09-06T23:36:12.285Z,99.90
2018-09-06T23:38:43.180Z,99.90
2018-09-06T23:41:14.058Z,99.90
2018-09-06T23:43:45.433Z,99.90
2018-09-06T23:46:16.732Z,99.90
2018-09-06T23:48:47.876Z,99.90
2018-09-06T23:51:18.778Z,99.90
2018-09-06T23:53:49.855Z,99.90
2018-09-06T23:56:21.238Z,99.90
2018-09-06T23:58:52.129Z,99.90
